createdAt,value
2018-09-22T00:01:54.099Z,9.13
2018-09-22T00:04:22.564Z,8.00
2018-09-22T00:06:51.057Z,8.80
2018-09-22T00:09:19.460Z,9.10
2018-09-22T00:11:47.936Z,8.00
2018-09-22T00:14:16.452Z,8.23
2018-09-22T00:16:44.856Z,9.53
2018-09-22T00:19:13.271Z,9.07
2018-09-22T00:21:41.720Z,9.00
2018-09-22T00:24:10.172Z,8.90
2018-09-22T00:26:38.509Z,8.73
2018-09-22T00:29:07.009Z,11.63
2018-09-22T00:31:35.676Z,9.10
2018-09-22T00:34:04.068Z,9.40
2018-09-22T00:36:32.449Z,8.47
2018-09-22T00:39:00.979Z,9.67
2018-09-22T00:41:29.432Z,8.53
2018-09-22T00:43:57.777Z,9.50
2018-09-22T00:46:26.212Z,9.10
2018-09-22T00:48:54.540Z,9.63
2018-09-22T00:51:22.881Z,11.30
2018-09-22T00:53:51.348Z,9.40
2018-09-22T00:56:19.792Z,9.17
2018-09-22T00:58:48.287Z,9.83
2018-09-22T01:01:16.788Z,8.97
2018-09-22T01:03:45.246Z,9.10
2018-09-22T01:06:13.669Z,9.10
2018-09-22T01:08:42.124Z,9.40
2018-09-22T01:11:10.463Z,9.33
2018-09-22T01:13:38.856Z,9.80
2018-09-22T01:16:07.304Z,9.63
2018-09-22T01:18:35.676Z,9.20
2018-09-22T01:21:04.090Z,8.97
2018-09-22T01:23:32.485Z,8.93
2018-09-22T01:26:00.864Z,9.43
2018-09-22T01:28:29.241Z,9.93
2018-09-22T01:30:57.524Z,9.27
2018-09-22T01:33:26.064Z,9.40
2018-09-22T01:35:54.544Z,8.90
2018-09-22T01:38:22.920Z,9.00
2018-09-22T01:40:51.316Z,10.37
2018-09-22T01:43:19.820Z,9.13
2018-09-22T01:45:48.326Z,9.27
2018-09-22T01:48:16.660Z,9.33
2018-09-22T01:50:45.141Z,10.20
2018-09-22T01:53:13.524Z,9.53
2018-09-22T01:55:41.978Z,10.40
2018-09-22T01:58:10.356Z,9.40
2018-09-22T02:00:38.771Z,9.70
2018-09-22T02:03:07.236Z,9.33
2018-09-22T02:05:35.603Z,9.53
2018-09-22T02:08:03.952Z,9.77
2018-09-22T02:10:32.411Z,10.40
2018-09-22T02:13:02.278Z,10.17
2018-09-22T02:15:30.599Z,10.43
2018-09-22T02:18:00.596Z,10.33
2018-09-22T02:20:29.012Z,11.03
2018-09-22T02:22:57.464Z,10.03
2018-09-22T02:25:26.190Z,10.13
2018-09-22T02:27:54.554Z,10.80
2018-09-22T02:30:23.026Z,10.73
2018-09-22T02:32:51.497Z,10.60
2018-09-22T02:35:19.829Z,10.80
2018-09-22T02:37:48.145Z,9.80
2018-09-22T02:40:16.424Z,9.53
2018-09-22T02:42:44.821Z,9.83
2018-09-22T02:45:13.121Z,10.40
2018-09-22T02:47:41.567Z,10.23
2018-09-22T02:50:10.005Z,10.23
2018-09-22T02:52:38.400Z,10.50
2018-09-22T02:55:06.801Z,10.83
2018-09-22T02:57:35.141Z,10.00
2018-09-22T03:00:03.658Z,10.53
2018-09-22T03:02:32.029Z,10.73
2018-09-22T03:05:00.489Z,10.13
2018-09-22T03:07:28.832Z,10.50
2018-09-22T03:09:57.107Z,9.77
2018-09-22T03:12:25.415Z,10.47
2018-09-22T03:14:53.748Z,10.23
2018-09-22T03:17:22.155Z,9.97
2018-09-22T03:19:50.616Z,11.03
2018-09-22T03:22:19.076Z,10.30
2018-09-22T03:24:47.512Z,10.37
2018-09-22T03:27:15.873Z,10.77
2018-09-22T03:29:44.305Z,10.67
2018-09-22T03:32:12.727Z,10.43
2018-09-22T03:34:41.124Z,11.13
2018-09-22T03:37:09.630Z,10.67
2018-09-22T03:39:38.178Z,11.03
2018-09-22T03:42:06.541Z,10.17
2018-09-22T03:44:34.968Z,11.57
2018-09-22T03:47:03.324Z,10.80
2018-09-22T03:49:31.806Z,10.50
2018-09-22T03:52:00.225Z,11.23
2018-09-22T03:54:28.692Z,11.00
2018-09-22T03:56:57.399Z,10.70
2018-09-22T03:59:25.771Z,11.00
2018-09-22T04:01:54.487Z,11.10
2018-09-22T04:04:23.173Z,10.90
2018-09-22T04:06:51.695Z,10.50
2018-09-22T04:09:20.062Z,10.67
2018-09-22T04:11:48.502Z,10.40
2018-09-22T04:14:17.913Z,10.67
2018-09-22T04:16:46.227Z,10.67
2018-09-22T04:19:14.633Z,11.27
2018-09-22T04:21:43.070Z,10.17
2018-09-22T04:24:17.771Z,10.10
2018-09-22T04:26:47.445Z,11.20
2018-09-22T04:29:16.012Z,11.73
2018-09-22T04:31:44.400Z,10.83
2018-09-22T04:34:12.812Z,10.90
2018-09-22T04:36:41.593Z,11.27
2018-09-22T04:39:10.477Z,10.93
2018-09-22T04:41:40.503Z,11.07
2018-09-22T04:44:09.213Z,11.60
2018-09-22T04:46:37.804Z,10.90
2018-09-22T04:49:06.260Z,11.27
2018-09-22T04:51:34.633Z,10.27
2018-09-22T04:54:03.105Z,10.90
2018-09-22T04:56:31.560Z,11.10
2018-09-22T04:58:59.980Z,11.53
2018-09-22T05:01:28.312Z,9.93
2018-09-22T05:03:56.751Z,11.73
2018-09-22T05:06:25.749Z,10.33
2018-09-22T05:08:54.133Z,11.27
2018-09-22T05:11:28.320Z,11.53
2018-09-22T05:13:56.735Z,10.97
2018-09-22T05:16:25.109Z,10.90
2018-09-22T05:18:53.473Z,11.00
2018-09-22T05:21:21.883Z,10.87
2018-09-22T05:23:50.232Z,11.03
2018-09-22T05:26:18.538Z,10.53
2018-09-22T05:28:46.904Z,10.93
2018-09-22T05:31:15.286Z,10.87
2018-09-22T05:33:43.621Z,11.77
2018-09-22T05:36:12.001Z,10.80
2018-09-22T05:38:40.493Z,17.93
2018-09-22T05:41:08.948Z,18.77
2018-09-22T05:43:37.466Z,18.43
2018-09-22T05:46:06.022Z,18.63
2018-09-22T05:48:34.406Z,13.80
2018-09-22T05:51:02.874Z,13.50
2018-09-22T05:53:31.348Z,11.70
2018-09-22T05:55:59.636Z,11.37
2018-09-22T05:58:28.101Z,11.00
2018-09-22T06:00:56.556Z,10.50
2018-09-22T06:03:24.970Z,10.80
2018-09-22T06:05:53.422Z,11.53
2018-09-22T06:08:21.828Z,11.67
2018-09-22T06:10:50.256Z,10.90
2018-09-22T06:13:18.653Z,10.90
2018-09-22T06:15:46.989Z,11.23
2018-09-22T06:18:15.335Z,11.43
2018-09-22T06:20:43.759Z,11.93
2018-09-22T06:23:12.210Z,11.27
2018-09-22T06:25:40.657Z,10.33
2018-09-22T06:28:09.114Z,10.57
2018-09-22T06:30:37.468Z,10.70
2018-09-22T06:33:05.985Z,11.20
2018-09-22T06:35:34.700Z,12.17
2018-09-22T06:38:03.080Z,10.67
2018-09-22T06:40:31.492Z,11.43
2018-09-22T06:43:01.038Z,11.40
2018-09-22T06:45:29.432Z,11.67
2018-09-22T06:47:57.845Z,11.13
2018-09-22T06:50:26.200Z,11.27
2018-09-22T06:52:54.635Z,11.77
2018-09-22T06:55:23.242Z,14.57
2018-09-22T06:57:51.521Z,11.97
2018-09-22T07:00:19.884Z,12.37
2018-09-22T07:02:48.196Z,11.93
2018-09-22T07:05:16.638Z,12.90
2018-09-22T07:07:45.033Z,12.67
2018-09-22T07:10:13.518Z,13.17
2018-09-22T07:12:42.009Z,12.87
2018-09-22T07:15:10.489Z,12.67
2018-09-22T07:17:38.959Z,12.67
2018-09-22T07:20:07.440Z,13.90
2018-09-22T07:22:41.185Z,14.77
2018-09-22T07:25:09.543Z,12.13
2018-09-22T07:27:37.909Z,15.20
2018-09-22T07:30:06.352Z,17.40
2018-09-22T07:32:35.012Z,17.60
2018-09-22T07:35:03.513Z,19.73
2018-09-22T07:37:31.882Z,21.13
2018-09-22T07:40:00.197Z,18.50
2018-09-22T07:42:28.629Z,15.77
2018-09-22T07:44:56.924Z,16.57
2018-09-22T07:47:25.429Z,16.10
2018-09-22T07:49:53.849Z,14.87
2018-09-22T07:52:22.236Z,13.90
2018-09-22T07:54:50.670Z,15.53
2018-09-22T07:57:18.960Z,16.07
2018-09-22T07:59:47.368Z,15.13
2018-09-22T08:02:15.833Z,15.43
2018-09-22T08:04:44.180Z,16.70
2018-09-22T08:07:12.544Z,14.40
2018-09-22T08:09:41.016Z,13.50
2018-09-22T08:12:09.552Z,16.23
2018-09-22T08:15:04.884Z,12.93
2018-09-22T08:17:33.208Z,15.40
2018-09-22T08:20:01.849Z,13.23
2018-09-22T08:22:30.176Z,13.40
2018-09-22T08:24:58.632Z,15.97
2018-09-22T08:27:27.089Z,13.80
2018-09-22T08:29:55.508Z,14.50
2018-09-22T08:32:23.849Z,14.50
2018-09-22T08:34:52.252Z,13.30
2018-09-22T08:37:20.730Z,14.37
2018-09-22T08:39:49.025Z,15.67
2018-09-22T08:42:17.409Z,14.23
2018-09-22T08:44:45.756Z,12.93
2018-09-22T08:47:14.165Z,14.53
2018-09-22T08:49:42.675Z,15.57
2018-09-22T08:52:10.968Z,12.80
2018-09-22T08:54:39.267Z,12.73
2018-09-22T08:57:07.603Z,14.10
2018-09-22T08:59:35.876Z,14.63
2018-09-22T09:02:04.277Z,12.63
2018-09-22T09:04:32.652Z,13.30
2018-09-22T09:07:00.989Z,13.07
2018-09-22T09:09:29.304Z,13.30
2018-09-22T09:11:57.648Z,12.43
2018-09-22T09:14:42.637Z,12.00
2018-09-22T09:17:10.915Z,10.70
2018-09-22T09:19:39.351Z,12.47
2018-09-22T09:22:07.681Z,11.60
2018-09-22T09:24:36.044Z,10.85
2018-09-22T09:27:04.553Z,10.17
2018-09-22T09:29:32.994Z,10.20
2018-09-22T09:32:01.266Z,9.90
2018-09-22T09:34:29.616Z,8.70
2018-09-22T09:36:57.991Z,9.50
2018-09-22T09:39:26.415Z,7.28
2018-09-22T09:41:54.840Z,7.95
2018-09-22T09:44:24.204Z,9.10
2018-09-22T09:46:52.616Z,8.13
2018-09-22T09:49:21.124Z,6.58
2018-09-22T09:51:49.447Z,6.75
2018-09-22T09:54:17.824Z,7.55
2018-09-22T09:56:46.171Z,7.67
2018-09-22T09:59:14.513Z,8.55
2018-09-22T10:01:42.829Z,8.50
2018-09-22T10:04:11.208Z,8.18
2018-09-22T10:06:39.647Z,8.40
2018-09-22T10:09:09.044Z,9.43
2018-09-22T10:11:37.540Z,8.38
2018-09-22T10:14:05.859Z,10.88
2018-09-22T10:16:34.188Z,7.30
2018-09-22T10:19:02.724Z,7.58
2018-09-22T10:21:31.194Z,8.38
2018-09-22T10:23:59.699Z,7.03
2018-09-22T10:26:28.124Z,8.05
2018-09-22T10:28:56.612Z,8.08
2018-09-22T10:31:24.995Z,8.18
2018-09-22T10:33:53.416Z,8.30
2018-09-22T10:36:21.957Z,7.80
2018-09-22T10:38:50.367Z,7.87
2018-09-22T10:41:18.811Z,10.82
2018-09-22T10:43:47.327Z,8.23
2018-09-22T10:46:15.792Z,7.47
2018-09-22T10:48:44.337Z,8.93
2018-09-22T10:51:13.067Z,6.33
2018-09-22T10:53:41.693Z,5.90
2018-09-22T10:56:10.476Z,5.12
2018-09-22T10:58:39.237Z,7.05
2018-09-22T11:01:08.100Z,5.78
2018-09-22T11:03:36.561Z,7.83
2018-09-22T11:06:05.196Z,7.50
2018-09-22T11:08:33.896Z,5.33
2018-09-22T11:11:02.355Z,5.72
2018-09-22T11:13:31.074Z,5.17
2018-09-22T11:15:59.875Z,6.85
2018-09-22T11:18:28.723Z,6.85
2018-09-22T11:20:57.579Z,5.87
2018-09-22T11:23:26.640Z,6.47
2018-09-22T11:25:55.640Z,6.20
2018-09-22T11:28:24.598Z,5.20
2018-09-22T11:30:53.668Z,6.25
2018-09-22T11:33:22.651Z,6.05
2018-09-22T11:35:51.891Z,5.12
2018-09-22T11:38:21.078Z,5.12
2018-09-22T11:40:51.908Z,4.87
2018-09-22T11:43:20.975Z,6.35
2018-09-22T11:45:50.042Z,6.72
2018-09-22T11:48:19.192Z,6.67
2018-09-22T11:50:48.313Z,7.15
2018-09-22T11:53:17.386Z,5.83
2018-09-22T11:55:46.724Z,7.17
2018-09-22T11:58:15.975Z,6.75
2018-09-22T12:00:45.127Z,8.73
2018-09-22T12:03:14.326Z,7.15
2018-09-22T12:05:43.497Z,5.20
2018-09-22T12:08:12.631Z,5.28
2018-09-22T12:10:41.948Z,7.20
2018-09-22T12:13:11.060Z,4.05
2018-09-22T12:15:55.544Z,5.40
2018-09-22T12:18:24.560Z,5.28
2018-09-22T12:20:53.702Z,5.15
2018-09-22T12:29:45.679Z,5.62
2018-09-22T12:32:14.824Z,4.90
2018-09-22T12:34:43.837Z,4.20
2018-09-22T12:37:12.900Z,5.58
2018-09-22T12:39:42.004Z,7.78
2018-09-22T12:42:11.187Z,5.33
2018-09-22T12:44:40.297Z,5.20
2018-09-22T12:47:09.379Z,5.15
2018-09-22T12:49:38.255Z,4.53
2018-09-22T12:52:06.922Z,4.75
2018-09-22T12:54:35.355Z,5.15
2018-09-22T12:57:03.833Z,7.50
2018-09-22T12:59:32.224Z,7.08
2018-09-22T13:02:00.737Z,4.95
2018-09-22T13:04:29.141Z,7.78
2018-09-22T13:06:57.424Z,6.05
2018-09-22T13:09:25.822Z,5.95
2018-09-22T13:11:54.128Z,5.37
2018-09-22T13:14:40.282Z,5.78
2018-09-22T13:17:08.757Z,4.87
2018-09-22T13:19:37.357Z,8.70
2018-09-22T13:22:05.706Z,8.50
2018-09-22T13:24:34.109Z,13.70
2018-09-22T13:27:02.614Z,5.25
2018-09-22T13:29:31.030Z,5.75
2018-09-22T13:31:59.449Z,9.83
2018-09-22T13:34:27.843Z,5.47
2018-09-22T13:36:56.209Z,4.30
2018-09-22T13:39:24.692Z,5.92
2018-09-22T13:41:53.044Z,6.40
2018-09-22T13:44:21.488Z,8.53
2018-09-22T13:46:49.808Z,7.97
2018-09-22T13:49:18.349Z,7.20
2018-09-22T13:51:46.688Z,5.28
2018-09-22T13:54:15.177Z,6.00
2018-09-22T13:56:43.554Z,7.83
2018-09-22T13:59:11.947Z,4.58
2018-09-22T14:01:40.383Z,9.15
2018-09-22T14:04:08.716Z,4.30
2018-09-22T14:06:37.073Z,5.67
2018-09-22T14:09:08.195Z,5.65
2018-09-22T14:11:36.600Z,5.30
2018-09-22T14:14:05.097Z,5.03
2018-09-22T14:16:33.568Z,5.12
2018-09-22T14:19:02.028Z,4.42
2018-09-22T14:21:30.530Z,5.67
2018-09-22T14:23:58.928Z,4.30
2018-09-22T14:26:27.467Z,5.80
2018-09-22T14:28:55.929Z,4.15
2018-09-22T14:31:24.456Z,4.83
2018-09-22T14:33:52.826Z,6.95
2018-09-22T14:36:21.772Z,7.50
2018-09-22T14:38:50.441Z,8.55
2018-09-22T14:41:18.988Z,5.60
2018-09-22T14:43:47.553Z,5.62
2018-09-22T14:46:15.959Z,6.28
2018-09-22T14:48:44.353Z,6.05
2018-09-22T14:51:12.793Z,5.62
2018-09-22T14:53:41.232Z,5.15
2018-09-22T14:56:09.714Z,4.33
2018-09-22T14:58:38.029Z,4.92
2018-09-22T15:01:06.385Z,7.15
2018-09-22T15:03:34.739Z,6.65
2018-09-22T15:06:03.095Z,4.25
2018-09-22T15:08:31.563Z,8.00
2018-09-22T15:10:59.981Z,5.42
2018-09-22T15:13:28.459Z,7.70
2018-09-22T15:16:34.007Z,5.30
2018-09-22T15:19:02.388Z,4.78
2018-09-22T15:21:30.724Z,5.33
2018-09-22T15:23:59.228Z,6.75
2018-09-22T15:26:27.553Z,5.17
2018-09-22T15:28:56.032Z,6.62
2018-09-22T15:31:24.393Z,6.22
2018-09-22T15:33:52.784Z,7.03
2018-09-22T15:36:22.247Z,5.78
2018-09-22T15:38:50.692Z,5.45
2018-09-22T15:41:19.175Z,7.22
2018-09-22T15:43:47.673Z,5.30
2018-09-22T15:46:16.014Z,6.33
2018-09-22T15:48:44.500Z,9.55
2018-09-22T15:51:12.987Z,6.70
2018-09-22T15:53:41.369Z,7.15
2018-09-22T15:56:09.852Z,8.38
2018-09-22T15:58:38.239Z,5.58
2018-09-22T16:01:06.729Z,5.92
2018-09-22T16:03:35.108Z,6.53
2018-09-22T16:06:03.560Z,5.58
2018-09-22T16:08:31.969Z,9.70
2018-09-22T16:11:00.359Z,8.40
2018-09-22T16:13:28.845Z,6.17
2018-09-22T16:16:41.688Z,7.17
2018-09-22T16:19:10.281Z,6.35
2018-09-22T16:21:38.694Z,7.12
2018-09-22T16:24:07.366Z,6.50
2018-09-22T16:26:35.917Z,6.87
2018-09-22T16:29:05.119Z,19.82
2018-09-22T16:31:33.869Z,7.58
2018-09-22T16:34:02.585Z,9.15
2018-09-22T16:36:31.225Z,7.37
2018-09-22T16:38:59.740Z,7.15
2018-09-22T16:41:28.212Z,6.42
2018-09-22T16:43:56.706Z,6.30
2018-09-22T16:46:25.204Z,10.53
2018-09-22T16:48:53.695Z,7.53
2018-09-22T16:51:22.097Z,5.67
2018-09-22T16:53:50.454Z,6.60
2018-09-22T16:56:18.920Z,12.10
2018-09-22T16:58:47.465Z,8.50
2018-09-22T17:01:16.211Z,6.37
2018-09-22T17:03:44.849Z,8.50
2018-09-22T17:06:13.336Z,6.87
2018-09-22T17:08:41.824Z,8.03
2018-09-22T17:11:10.282Z,8.23
2018-09-22T17:13:38.680Z,7.05
2018-09-22T17:16:58.694Z,10.68
2018-09-22T17:19:27.196Z,7.70
2018-09-22T17:21:55.972Z,6.87
2018-09-22T17:24:24.562Z,8.28
2018-09-22T17:26:53.078Z,8.13
2018-09-22T17:29:21.524Z,9.40
2018-09-22T17:31:49.906Z,6.90
2018-09-22T17:34:18.405Z,9.28
2018-09-22T17:36:46.846Z,7.40
2018-09-22T17:39:15.365Z,7.70
2018-09-22T17:41:43.950Z,7.67
2018-09-22T17:44:12.568Z,9.18
2018-09-22T17:46:41.128Z,8.80
2018-09-22T17:49:09.659Z,7.50
2018-09-22T17:51:38.129Z,7.75
2018-09-22T17:54:07.181Z,8.68
2018-09-22T17:56:36.175Z,7.00
2018-09-22T17:59:04.637Z,10.78
2018-09-22T18:01:33.328Z,8.28
2018-09-22T18:04:01.739Z,7.80
2018-09-22T18:06:30.168Z,7.58
2018-09-22T18:08:58.497Z,6.67
2018-09-22T18:11:30.006Z,7.47
2018-09-22T18:13:58.268Z,8.55
2018-09-22T18:16:27.091Z,7.10
2018-09-22T18:18:55.912Z,7.00
2018-09-22T18:21:24.312Z,7.60
2018-09-22T18:23:52.693Z,6.37
2018-09-22T18:26:21.331Z,8.68
2018-09-22T18:28:50.250Z,6.30
2018-09-22T18:31:18.916Z,8.13
2018-09-22T18:33:47.404Z,6.90
2018-09-22T18:36:15.915Z,7.80
2018-09-22T18:38:44.229Z,6.97
2018-09-22T18:41:12.600Z,8.45
2018-09-22T18:43:41.445Z,6.17
2018-09-22T18:46:10.129Z,6.40
2018-09-22T18:48:38.813Z,8.00
2018-09-22T18:51:07.184Z,6.30
2018-09-22T18:53:35.892Z,6.25
2018-09-22T18:56:04.297Z,5.97
2018-09-22T18:58:33.055Z,7.27
2018-09-22T19:01:01.752Z,6.50
2018-09-22T19:03:30.453Z,7.58
2018-09-22T19:05:58.978Z,6.40
2018-09-22T19:08:27.457Z,6.47
2018-09-22T19:10:55.840Z,7.20
2018-09-22T19:13:28.403Z,6.60
2018-09-22T19:19:27.664Z,5.60
2018-09-22T19:21:59.723Z,7.83
2018-09-22T19:24:32.129Z,5.80
2018-09-22T19:27:05.181Z,5.97
2018-09-22T19:30:12.545Z,7.20
2018-09-22T19:32:45.465Z,6.00
2018-09-22T19:35:17.532Z,5.30
2018-09-22T19:37:49.454Z,6.87
2018-09-22T19:40:22.611Z,4.53
2018-09-22T19:43:58.932Z,5.10
2018-09-22T19:46:35.092Z,4.93
2018-09-22T19:49:07.767Z,5.90
2018-09-22T19:51:40.888Z,4.53
2018-09-22T19:54:09.401Z,8.70
2018-09-22T19:56:37.860Z,6.47
2018-09-22T19:59:06.289Z,5.80
2018-09-22T20:01:34.747Z,9.77
2018-09-22T20:04:03.064Z,7.63
2018-09-22T20:06:31.393Z,8.37
2018-09-22T20:08:59.797Z,8.93
2018-09-22T20:11:28.260Z,8.30
2018-09-22T20:13:56.685Z,12.13
2018-09-22T20:17:07.635Z,9.77
2018-09-22T20:19:36.368Z,10.77
2018-09-22T20:22:06.671Z,9.10
2018-09-22T20:24:35.088Z,8.83
2018-09-22T20:30:24.768Z,7.67
2018-09-22T20:32:53.080Z,5.57
2018-09-22T20:35:21.711Z,5.40
2018-09-22T20:37:50.441Z,6.23
2018-09-22T20:40:19.008Z,4.63
2018-09-22T20:42:47.796Z,5.20
2018-09-22T20:45:16.156Z,6.80
2018-09-22T20:47:44.856Z,5.30
2018-09-22T20:50:13.148Z,4.30
2018-09-22T20:52:41.651Z,6.50
2018-09-22T20:55:10.401Z,4.53
2018-09-22T20:57:39.200Z,5.50
2018-09-22T21:00:09.022Z,4.63
2018-09-22T21:02:37.552Z,5.17
2018-09-22T21:05:06.296Z,6.57
2018-09-22T21:07:35.391Z,4.80
2018-09-22T21:10:03.988Z,9.53
2018-09-22T21:12:32.379Z,6.10
2018-09-22T21:15:37.830Z,5.33
2018-09-22T21:18:06.901Z,7.17
2018-09-22T21:20:35.299Z,6.27
2018-09-22T21:23:05.523Z,5.13
2018-09-22T21:25:33.820Z,5.43
2018-09-22T21:28:04.320Z,6.50
2018-09-22T21:30:32.688Z,6.63
2018-09-22T21:33:01.136Z,5.57
2018-09-22T21:35:29.504Z,7.87
2018-09-22T21:37:58.049Z,5.60
2018-09-22T21:40:26.808Z,6.63
2018-09-22T21:42:55.526Z,6.70
2018-09-22T21:45:23.915Z,8.40
2018-09-22T21:47:52.329Z,6.10
2018-09-22T21:50:20.675Z,5.77
2018-09-22T21:52:49.060Z,5.20
2018-09-22T21:55:17.356Z,4.90
2018-09-22T21:57:46.025Z,7.63
2018-09-22T22:00:14.963Z,5.53
2018-09-22T22:02:43.749Z,4.97
2018-09-22T22:05:12.279Z,5.60
2018-09-22T22:07:44.016Z,5.63
2018-09-22T22:10:12.572Z,7.13
2018-09-22T22:12:42.928Z,5.90
2018-09-22T22:15:11.693Z,6.83
2018-09-22T22:17:40.011Z,5.40
2018-09-22T22:20:09.413Z,6.67
2018-09-22T22:22:37.926Z,6.67
2018-09-22T22:25:07.230Z,5.10
2018-09-22T22:27:35.712Z,6.20
2018-09-22T22:30:05.284Z,6.30
2018-09-22T22:32:34.119Z,7.13
2018-09-22T22:35:02.578Z,5.50
2018-09-22T22:37:31.315Z,6.13
2018-09-22T22:40:00.099Z,6.23
2018-09-22T22:42:28.992Z,6.50
2018-09-22T22:44:58.802Z,6.13
2018-09-22T22:47:27.495Z,5.33
2018-09-22T22:49:56.191Z,5.97
2018-09-22T22:52:24.732Z,7.17
2018-09-22T22:54:53.036Z,6.23
2018-09-22T22:57:21.508Z,6.03
2018-09-22T22:59:49.884Z,7.30
2018-09-22T23:02:18.566Z,6.87
2018-09-22T23:04:47.367Z,6.70
2018-09-22T23:07:16.053Z,6.77
2018-09-22T23:09:44.461Z,8.33
2018-09-22T23:12:13.150Z,7.00
2018-09-22T23:14:41.483Z,6.77
2018-09-22T23:17:09.837Z,6.40
2018-09-22T23:19:38.308Z,6.40
2018-09-22T23:22:06.874Z,6.70
2018-09-22T23:24:35.637Z,6.37
2018-09-22T23:27:04.361Z,8.60
2018-09-22T23:29:33.025Z,8.33
2018-09-22T23:32:01.313Z,8.23
2018-09-22T23:34:29.887Z,6.80
2018-09-22T23:36:58.222Z,8.17
2018-09-22T23:39:26.952Z,7.17
2018-09-22T23:41:55.412Z,6.83
2018-09-22T23:44:23.744Z,6.93
2018-09-22T23:46:52.099Z,6.60
2018-09-22T23:49:20.427Z,6.20
2018-09-22T23:51:49.068Z,6.37
2018-09-22T23:54:17.488Z,7.90
2018-09-22T23:56:46.137Z,7.13
2018-09-22T23:59:14.803Z,10.13
